Time;durP1;ratioP1;P1;durP2;ratioP2;P2;SDS_P1;SDS_P2;PMS_P1;PMS_P2;Temp;Humidity;BMP_temperature;BMP_pressure;BME280_temperature;BME280_humidity;BME280_pressure;Samples;Min_cycle;Max_cycle;Signal;HPM_P1;HPM_P2
2023/10/16 00:01:21;;;;;;;;;;;;;;;18.09;96.65;98938.03;5031314;28;1082;-59
2023/10/16 00:03:49;;;;;;;;;;;;;;;18.07;96.23;98929.34;5030117;28;909;-58
2023/10/16 00:06:16;;;;;;;;;;;;;;;18.04;95.59;98933.06;5031275;28;985;-58
2023/10/16 00:09:29;;;;;;;;;;;;;;;18.02;95.22;98934.78;5015875;28;917;-58
2023/10/16 00:11:31;;;;;;;;;;;;;;;18.03;93.98;98934.34;5024463;28;1621;-58
2023/10/16 00:13:57;;;;;;;;;;;;;;;18.10;91.51;98928.38;5034931;28;1212;-57
2023/10/16 00:16:24;;;;;;;;;;;;;;;18.15;90.59;98929.75;5035069;28;819;-58
2023/10/16 00:18:53;;;;;;;;;;;;;;;18.16;89.43;98932.06;5034919;28;2019;-57
2023/10/16 00:21:19;;;;;;;;;;;;;;;18.19;88.06;98932.38;5034962;28;1286;-58
2023/10/16 00:23:46;;;;;;;;;;;;;;;18.17;87.50;98935.63;5034790;28;905;-58
2023/10/16 00:26:19;;;;;;;;;;;;;;;18.19;86.10;98924.75;5034920;28;823;-57
2023/10/16 00:28:46;;;;;;;;;;;;;;;18.20;84.82;98939.50;5034820;28;783;-57
2023/10/16 00:31:22;;;;;;;;;;;;;;;18.18;84.09;98940.00;5034724;28;885;-58
2023/10/16 00:33:51;;;;;;;;;;;;;;;18.21;83.22;98943.84;5034699;28;818;-58
2023/10/16 00:36:17;;;;;;;;;;;;;;;18.18;82.52;98934.41;5034538;28;922;-57
2023/10/16 00:38:51;;;;;;;;;;;;;;;18.15;82.32;98938.91;5034573;28;1942;-57
2023/10/16 00:41:21;;;;;;;;;;;;;;;18.10;82.42;98947.94;5034497;28;882;-56
2023/10/16 00:43:48;;;;;;;;;;;;;;;18.06;82.39;98955.72;5034449;28;922;-50
2023/10/16 00:46:29;;;;;;;;;;;;;;;18.00;82.27;98942.88;5034340;28;870;-56
2023/10/16 00:48:58;;;;;;;;;;;;;;;17.97;82.39;98947.41;5034378;28;898;-52
2023/10/16 00:51:25;;;;;;;;;;;;;;;17.96;81.55;98965.41;5034288;28;885;-56
2023/10/16 00:53:52;;;;;;;;;;;;;;;17.91;81.44;98949.31;5034300;28;791;-57
2023/10/16 00:56:19;;;;;;;;;;;;;;;17.91;80.76;98968.88;5034084;28;930;-53
2023/10/16 00:58:47;;;;;;;;;;;;;;;17.92;80.26;98962.81;5016394;28;1882;-54
2023/10/16 01:01:14;;;;;;;;;;;;;;;17.86;80.15;98961.91;5034149;28;839;-57
2023/10/16 01:03:41;;;;;;;;;;;;;;;17.82;80.19;98958.50;5034101;28;897;-55
2023/10/16 01:06:24;;;;;;;;;;;;;;;17.82;80.32;98958.50;5033953;28;883;-56
2023/10/16 01:08:50;;;;;;;;;;;;;;;17.76;80.72;98966.72;5033961;28;925;-53
2023/10/16 01:11:22;;;;;;;;;;;;;;;17.69;81.09;98983.06;5034090;28;874;-55
2023/10/16 01:13:50;;;;;;;;;;;;;;;17.61;81.38;98991.00;5033812;28;1614;-53
2023/10/16 01:16:18;;;;;;;;;;;;;;;17.50;82.03;98976.75;5033978;28;842;-52
2023/10/16 01:18:45;;;;;;;;;;;;;;;17.43;82.19;98980.66;5033424;28;1902;-57
2023/10/16 01:21:14;;;;;;;;;;;;;;;17.35;82.19;98980.19;5033818;28;834;-52
2023/10/16 01:23:44;;;;;;;;;;;;;;;17.28;81.91;99000.09;5033658;28;927;-57
2023/10/16 01:26:13;;;;;;;;;;;;;;;17.23;80.97;98986.72;5033534;28;1231;-55
2023/10/16 01:28:40;;;;;;;;;;;;;;;17.18;80.51;99003.34;5033827;28;1199;-56
2023/10/16 01:31:07;;;;;;;;;;;;;;;17.11;79.98;98998.84;5033683;28;1377;-55
2023/10/16 01:33:35;;;;;;;;;;;;;;;17.07;79.50;99007.41;5033608;28;1233;-55
2023/10/16 01:36:07;;;;;;;;;;;;;;;16.96;79.07;98995.13;5033645;28;1283;-50
2023/10/16 01:38:34;;;;;;;;;;;;;;;16.96;78.10;99003.50;5033669;28;1952;-57
2023/10/16 01:41:05;;;;;;;;;;;;;;;16.91;78.08;99024.44;5033327;28;926;-56
2023/10/16 01:43:31;;;;;;;;;;;;;;;16.88;78.24;99003.84;5033454;28;862;-52
2023/10/16 01:46:08;;;;;;;;;;;;;;;16.83;78.44;99017.63;5033377;28;838;-52
2023/10/16 01:48:40;;;;;;;;;;;;;;;16.80;78.52;98988.63;5033340;28;807;-54
2023/10/16 01:51:10;;;;;;;;;;;;;;;16.73;79.19;99011.25;5033265;28;964;-55
2023/10/16 01:53:39;;;;;;;;;;;;;;;16.70;78.97;99004.56;5033254;28;802;-53
2023/10/16 01:56:13;;;;;;;;;;;;;;;16.68;79.34;99014.63;5033200;28;818;-56
2023/10/16 01:58:41;;;;;;;;;;;;;;;16.61;79.49;99020.53;5033009;28;1959;-56
2023/10/16 02:01:09;;;;;;;;;;;;;;;16.62;78.88;99010.91;5033009;28;965;-55
2023/10/16 02:03:36;;;;;;;;;;;;;;;16.52;78.97;99033.22;5032929;28;1210;-53
2023/10/16 02:06:02;;;;;;;;;;;;;;;16.48;79.07;99004.69;5032914;28;889;-53
2023/10/16 02:08:29;;;;;;;;;;;;;;;16.48;79.02;99029.03;5033069;28;870;-56
2023/10/16 02:10:56;;;;;;;;;;;;;;;16.38;80.18;99022.63;5032790;28;954;-50
2023/10/16 02:13:22;;;;;;;;;;;;;;;16.29;80.32;99020.59;5033000;28;938;-54
2023/10/16 02:15:48;;;;;;;;;;;;;;;16.24;80.66;99026.03;5032639;28;1324;-53
2023/10/16 02:18:24;;;;;;;;;;;;;;;16.24;80.40;99020.44;5032748;28;889;-51
2023/10/16 02:20:51;;;;;;;;;;;;;;;16.22;80.35;99028.50;5032773;28;839;-54
2023/10/16 02:23:18;;;;;;;;;;;;;;;16.22;80.46;99025.72;5032559;28;906;-54
2023/10/16 02:25:45;;;;;;;;;;;;;;;16.27;80.23;99050.19;5032657;28;1172;-57
2023/10/16 02:28:13;;;;;;;;;;;;;;;16.24;80.35;99049.09;5032749;28;855;-55
2023/10/16 02:30:41;;;;;;;;;;;;;;;16.21;80.47;99071.53;5031820;28;1133;-53
2023/10/16 02:33:18;;;;;;;;;;;;;;;16.18;80.67;99047.38;5032373;28;891;-52
2023/10/16 02:35:48;;;;;;;;;;;;;;;16.15;80.54;99084.53;5032266;28;934;-54
2023/10/16 02:38:23;;;;;;;;;;;;;;;16.06;80.63;99077.66;5014614;28;916;-52
2023/10/16 02:40:53;;;;;;;;;;;;;;;16.08;79.70;99089.13;5032258;28;870;-57
2023/10/16 02:43:20;;;;;;;;;;;;;;;16.01;79.09;99069.91;5032187;28;902;-57
2023/10/16 02:45:52;;;;;;;;;;;;;;;15.91;78.98;99074.66;5032209;28;884;-54
2023/10/16 02:48:23;;;;;;;;;;;;;;;15.85;78.87;99089.63;5032216;28;807;-51
2023/10/16 02:50:50;;;;;;;;;;;;;;;15.80;77.71;99104.94;5032111;28;826;-50
2023/10/16 02:53:21;;;;;;;;;;;;;;;15.73;77.86;99085.72;5031986;28;869;-54
2023/10/16 02:55:57;;;;;;;;;;;;;;;15.68;78.22;99105.75;5032091;28;957;-55
2023/10/16 02:58:31;;;;;;;;;;;;;;;15.57;79.03;99103.34;5031949;28;1952;-54
2023/10/16 03:01:06;;;;;;;;;;;;;;;15.55;79.16;99105.81;5032614;28;826;-55
2023/10/16 03:03:32;;;;;;;;;;;;;;;15.43;79.94;99115.03;5032082;28;910;-53
2023/10/16 03:05:59;;;;;;;;;;;;;;;15.37;81.27;99094.56;5032002;28;910;-51
2023/10/16 03:08:32;;;;;;;;;;;;;;;14.82;90.07;99105.97;5032034;28;946;-51
2023/10/16 03:11:06;;;;;;;;;;;;;;;13.35;100.00;99121.47;5031778;28;922;-54
2023/10/16 03:13:35;;;;;;;;;;;;;;;12.75;100.00;99119.03;5031774;28;1384;-52
2023/10/16 03:16:05;;;;;;;;;;;;;;;12.91;100.00;99110.69;5031704;28;973;-51
2023/10/16 03:18:33;;;;;;;;;;;;;;;13.47;100.00;99099.31;5031699;28;1959;-52
2023/10/16 03:21:26;;;;;;;;;;;;;;;13.71;100.00;99082.38;5031629;28;883;-51
2023/10/16 03:23:49;;;;;;;;;;;;;;;13.55;100.00;99112.97;5031452;28;1490;-55
2023/10/16 03:26:25;;;;;;;;;;;;;;;13.54;100.00;99123.31;5031607;28;1424;-55
2023/10/16 03:28:56;;;;;;;;;;;;;;;13.75;100.00;99138.59;5013911;28;2078;-56
2023/10/16 03:31:23;;;;;;;;;;;;;;;13.67;100.00;99128.91;5032017;28;886;-51
2023/10/16 03:33:50;;;;;;;;;;;;;;;13.53;100.00;99134.84;5031599;28;925;-51
2023/10/16 03:36:17;;;;;;;;;;;;;;;13.27;100.00;99143.84;5031717;28;826;-54
2023/10/16 03:38:45;;;;;;;;;;;;;;;13.17;100.00;99156.00;5031467;28;1941;-56
2023/10/16 03:43:49;;;;;;;;;;;;;;;11.40;100.00;99149.97;5035746;28;681;-54
2023/10/16 03:46:15;;;;;;;;;;;;;;;10.91;100.00;99119.25;5035735;28;866;-56
2023/10/16 03:48:44;;;;;;;;;;;;;;;10.60;100.00;99168.31;5035555;28;885;-57
2023/10/16 03:51:12;;;;;;;;;;;;;;;10.38;100.00;99168.63;5035515;28;818;-59
2023/10/16 03:53:39;;;;;;;;;;;;;;;10.27;100.00;99153.38;5035515;28;846;-59
2023/10/16 03:56:06;;;;;;;;;;;;;;;10.20;100.00;99146.00;5035330;28;870;-59
2023/10/16 03:58:33;;;;;;;;;;;;;;;10.25;100.00;99145.50;5035225;28;1878;-59
2023/10/16 04:01:07;;;;;;;;;;;;;;;10.37;100.00;99171.81;5035401;28;938;-59
2023/10/16 04:03:46;;;;;;;;;;;;;;;10.51;100.00;99135.69;5035202;28;915;-59
2023/10/16 04:06:21;;;;;;;;;;;;;;;10.97;100.00;99174.84;5035080;28;863;-59
2023/10/16 04:08:48;;;;;;;;;;;;;;;11.30;100.00;99164.78;5035157;28;969;-59
2023/10/16 04:11:16;;;;;;;;;;;;;;;11.23;100.00;99160.16;5035267;28;896;-59
2023/10/16 04:13:47;;;;;;;;;;;;;;;11.28;100.00;99153.38;5035078;28;1312;-58
2023/10/16 04:21:51;;;;;;;;;;;;;;;12.15;100.00;99174.63;4974071;28;922;-60
2023/10/16 04:29:45;;;;;;;;;;;;;;;12.30;100.00;99166.81;4973875;28;1249;-60
2023/10/16 04:35:03;;;;;;;;;;;;;;;12.49;100.00;99173.50;4974276;28;784;-58
2023/10/16 04:37:36;;;;;;;;;;;;;;;12.55;100.00;99167.03;4973756;28;1209;-59
2023/10/16 04:47:42;;;;;;;;;;;;;;;12.80;100.00;99196.13;4973627;28;845;-57
2023/10/16 04:50:15;;;;;;;;;;;;;;;12.79;100.00;99181.50;5004840;28;1009;-55
2023/10/16 05:20:34;;;;;;;;;;;;;;;12.81;100.00;99220.66;5033771;28;1978;-54
2023/10/16 06:17:56;;;;;;;;;;;;;;;13.08;100.00;99352.81;5032653;28;826;-55
2023/10/16 06:20:26;;;;;;;;;;;;;;;13.06;100.00;99397.63;5032392;28;1972;-60
2023/10/16 06:22:52;;;;;;;;;;;;;;;13.05;100.00;99386.97;5032674;28;863;-55
2023/10/16 06:25:28;;;;;;;;;;;;;;;13.03;100.00;99386.63;5032452;28;921;-58
2023/10/16 06:27:56;;;;;;;;;;;;;;;13.00;100.00;99373.63;5014969;28;1320;-53
2023/10/16 06:30:23;;;;;;;;;;;;;;;13.04;100.00;99402.84;5032577;28;930;-52
2023/10/16 06:32:49;;;;;;;;;;;;;;;13.05;100.00;99423.81;5032743;28;838;-58
2023/10/16 06:35:19;;;;;;;;;;;;;;;13.05;100.00;99373.09;5032388;28;1264;-53
2023/10/16 06:37:51;;;;;;;;;;;;;;;12.96;100.00;99414.50;5015347;28;1073;-58
2023/10/16 06:40:24;;;;;;;;;;;;;;;12.82;100.00;99369.22;5032194;28;1889;-56
2023/10/16 07:13:52;;;;;;;;;;;;;;;12.75;100.00;99521.09;5365375;23;1673;-72
2023/10/16 07:16:20;;;;;;;;;;;;;;;12.72;100.00;99528.28;5051764;28;864;-70
2023/10/16 07:18:53;;;;;;;;;;;;;;;12.70;100.00;99461.38;5051626;28;1981;-66
2023/10/16 07:21:21;;;;;;;;;;;;;;;12.70;100.00;99488.31;5051554;28;834;-66
2023/10/16 07:23:47;;;;;;;;;;;;;;;12.66;100.00;99533.53;5051385;28;1161;-67
2023/10/16 07:26:17;;;;;;;;;;;;;;;12.65;100.00;99542.25;5051380;28;857;-66
2023/10/16 07:28:50;;;;;;;;;;;;;;;12.73;100.00;99562.34;5051306;28;845;-69
2023/10/16 07:31:17;;;;;;;;;;;;;;;12.81;100.00;99588.75;5051368;28;861;-67
2023/10/16 07:33:53;;;;;;;;;;;;;;;12.75;100.00;99565.47;5051266;28;870;-67
2023/10/16 07:36:20;;;;;;;;;;;;;;;12.78;100.00;99539.66;5033346;28;1250;-67
2023/10/16 07:38:48;;;;;;;;;;;;;;;12.88;100.00;99594.16;5033279;28;1968;-70
2023/10/16 07:41:18;;;;;;;;;;;;;;;12.96;100.00;99590.06;5051340;28;854;-69
2023/10/16 07:43:46;;;;;;;;;;;;;;;12.96;100.00;99623.34;5051210;28;889;-68
2023/10/16 07:48:45;;;;;;;;;;;;;;;12.98;99.80;99670.09;5051078;28;802;-69
2023/10/16 07:51:14;;;;;;;;;;;;;;;12.90;100.00;99661.09;5051163;28;830;-67
2023/10/16 07:53:41;;;;;;;;;;;;;;;12.96;100.00;99689.13;5051053;28;869;-66
2023/10/16 07:56:32;;;;;;;;;;;;;;;12.94;100.00;99692.31;5051076;28;799;-70
2023/10/16 07:59:18;;;;;;;;;;;;;;;13.00;100.00;99712.84;5050063;28;1894;-67
2023/10/16 08:06:48;;;;;;;;;;;;;;;13.41;99.08;99763.75;5051057;28;679;-68
2023/10/16 08:11:57;;;;;;;;;;;;;;;14.02;98.55;99782.88;5050915;28;1040;-71
2023/10/16 08:14:27;;;;;;;;;;;;;;;14.29;90.72;99779.16;5050782;28;1439;-73
2023/10/16 08:17:16;;;;;;;;;;;;;;;14.37;90.34;99802.81;5050914;28;806;-72
2023/10/16 08:19:41;;;;;;;;;;;;;;;14.46;88.68;99819.69;5050164;28;1989;-72
2023/10/16 08:22:09;;;;;;;;;;;;;;;14.42;88.17;99827.38;5033000;28;1165;-71
2023/10/16 08:24:43;;;;;;;;;;;;;;;14.45;89.00;99834.06;5050715;28;881;-74
2023/10/16 08:27:23;;;;;;;;;;;;;;;14.33;78.08;99834.69;5050837;28;814;-73
2023/10/16 08:29:59;;;;;;;;;;;;;;;14.43;78.54;99848.38;5035373;28;1229;-75
2023/10/16 08:35:10;;;;;;;;;;;;;;;14.61;76.32;99869.50;5054563;28;747;-74
2023/10/16 08:38:26;;;;;;;;;;;;;;;14.46;76.33;99866.97;5054302;28;877;-73
2023/10/16 08:40:32;;;;;;;;;;;;;;;14.77;76.43;99871.59;5046535;28;1878;-73
2023/10/16 08:43:01;;;;;;;;;;;;;;;14.73;75.16;99866.09;5054331;28;882;-72
